createdAt,value
2023-04-06T00:03:45.259Z,98903.59
2023-04-06T00:08:37.079Z,98902.34
2023-04-06T00:13:28.815Z,98905.41
2023-04-06T00:18:20.795Z,98896.81
2023-04-06T00:23:12.392Z,98889.28
2023-04-06T00:28:04.751Z,98880.13
2023-04-06T00:32:56.831Z,98880.72
2023-04-06T00:37:49.364Z,98888.81
2023-04-06T00:42:42.188Z,98874.47
2023-04-06T00:47:34.727Z,98874.47
2023-04-06T00:52:26.708Z,98874.59
2023-04-06T00:57:19.055Z,98869.41
2023-04-06T01:02:10.772Z,98854.03
2023-04-06T01:07:02.695Z,98856.72
2023-04-06T01:11:54.307Z,98858.59
2023-04-06T01:16:46.241Z,98850.47
2023-04-06T01:21:39.171Z,98844.00
2023-04-06T01:26:31.265Z,98839.41
2023-04-06T01:31:23.608Z,98832.50
2023-04-06T01:36:15.811Z,98837.91
2023-04-06T01:41:07.424Z,98819.78
2023-04-06T01:45:59.088Z,98817.22
2023-04-06T01:50:50.719Z,98811.34
2023-04-06T01:55:42.943Z,98803.56
2023-04-06T02:00:34.881Z,98812.03
2023-04-06T02:05:27.229Z,98802.03
2023-04-06T02:10:19.083Z,98789.91
2023-04-06T02:15:11.234Z,98785.34
2023-04-06T02:20:02.834Z,98785.34
2023-04-06T02:24:54.535Z,98777.69
2023-04-06T02:29:46.408Z,98775.78
2023-04-06T02:34:38.048Z,98767.66
2023-04-06T02:39:29.749Z,98773.66
2023-04-06T02:44:21.475Z,98771.78
2023-04-06T02:49:13.080Z,98765.06
2023-04-06T02:54:04.807Z,98758.84
2023-04-06T02:58:56.471Z,98748.25
2023-04-06T03:03:48.274Z,98753.41
2023-04-06T03:08:40.003Z,98755.66
2023-04-06T03:13:31.711Z,98744.34
2023-04-06T03:18:24.630Z,98746.00
2023-04-06T03:23:16.418Z,98733.28
2023-04-06T03:28:08.044Z,98727.06
2023-04-06T03:32:59.749Z,98722.69
2023-04-06T03:37:51.507Z,98718.09
2023-04-06T03:42:43.217Z,98712.19
2023-04-06T03:47:34.926Z,98709.00
2023-04-06T03:52:27.347Z,98699.59
2023-04-06T03:57:19.075Z,98696.09
2023-04-06T04:02:11.002Z,98696.09
2023-04-06T04:07:02.760Z,98697.72
2023-04-06T04:11:54.364Z,98693.94
2023-04-06T04:16:46.124Z,98699.38
2023-04-06T04:21:45.944Z,98706.69
2023-04-06T04:26:38.493Z,98690.66
2023-04-06T04:31:30.181Z,98686.63
2023-04-06T04:36:21.829Z,98698.31
2023-04-06T04:41:13.518Z,98697.72
2023-04-06T04:46:05.866Z,98702.31
2023-04-06T04:50:57.617Z,98705.59
2023-04-06T04:55:49.309Z,98700.41
2023-04-06T05:00:40.938Z,98715.84
2023-04-06T05:05:32.781Z,98713.72
2023-04-06T05:10:24.488Z,98714.81
2023-04-06T05:15:16.306Z,98706.06
2023-04-06T05:20:08.459Z,98706.31
2023-04-06T05:25:00.324Z,98712.19
2023-04-06T05:29:52.381Z,98716.81
2023-04-06T05:34:44.067Z,98728.34
2023-04-06T05:39:35.661Z,98738.34
2023-04-06T05:44:27.315Z,98722.81
2023-04-06T05:49:18.957Z,98730.56
2023-04-06T05:54:10.766Z,98740.00
2023-04-06T05:59:02.542Z,98757.53
2023-04-06T06:03:54.188Z,98766.38
2023-04-06T06:08:45.884Z,98772.94
2023-04-06T06:13:37.588Z,98782.81
2023-04-06T06:18:29.240Z,98766.34
2023-04-06T06:23:20.898Z,98773.72
2023-04-06T06:28:12.488Z,98785.59
2023-04-06T06:33:04.580Z,98792.31
2023-04-06T06:37:56.733Z,98815.81
2023-04-06T06:42:48.436Z,98821.47
2023-04-06T06:47:40.185Z,98819.00
2023-04-06T06:52:31.890Z,98821.47
2023-04-06T06:57:23.485Z,98831.13
2023-04-06T07:02:15.632Z,98818.75
2023-04-06T07:07:09.530Z,98821.91
2023-04-06T07:12:03.088Z,98833.31
2023-04-06T07:16:54.816Z,98838.72
2023-04-06T07:21:46.721Z,98842.84
2023-04-06T07:26:38.378Z,98842.16
2023-04-06T07:31:30.622Z,98843.34
2023-04-06T07:36:22.310Z,98843.63
2023-04-06T07:41:14.050Z,98847.91
2023-04-06T07:46:05.738Z,98843.13
2023-04-06T07:51:05.094Z,98833.84
2023-04-06T07:55:57.105Z,98838.44
2023-04-06T08:00:48.840Z,98833.13
2023-04-06T08:05:40.658Z,98841.38
2023-04-06T08:10:32.342Z,98844.66
2023-04-06T08:15:24.014Z,98847.03
2023-04-06T08:20:15.860Z,98855.88
2023-04-06T08:25:07.694Z,98859.63
2023-04-06T08:29:59.539Z,98861.28
2023-04-06T08:34:55.517Z,98855.75
2023-04-06T08:39:47.200Z,98872.13
2023-04-06T08:44:38.993Z,98863.25
2023-04-06T08:49:30.760Z,98860.69
2023-04-06T08:54:22.383Z,98880.81
2023-04-06T08:59:14.360Z,98883.56
2023-04-06T09:04:12.709Z,98887.31
2023-04-06T09:09:05.211Z,98889.88
2023-04-06T09:13:58.425Z,98887.50
2023-04-06T09:18:50.923Z,98886.16
2023-04-06T09:23:42.645Z,98898.25
2023-04-06T09:28:49.664Z,98901.09
2023-04-06T09:33:46.548Z,98906.16
2023-04-06T09:38:39.505Z,98910.66
2023-04-06T09:43:31.536Z,98904.19
2023-04-06T09:48:24.679Z,98905.34
2023-04-06T09:53:20.504Z,98908.06
2023-04-06T09:58:15.319Z,98922.28
2023-04-06T10:03:28.306Z,98903.34
2023-04-06T10:08:21.953Z,98924.38
2023-04-06T10:13:13.584Z,98924.78
2023-04-06T10:18:05.887Z,98942.84
2023-04-06T10:23:08.237Z,98944.53
2023-04-06T10:28:06.097Z,98942.38
2023-04-06T10:32:57.748Z,98945.19
2023-04-06T10:38:03.575Z,98946.09
2023-04-06T10:42:56.470Z,98949.06
2023-04-06T10:47:48.280Z,98955.31
2023-04-06T10:52:40.075Z,98962.56
2023-04-06T10:57:34.837Z,98952.31
2023-04-06T11:02:27.173Z,98956.94
2023-04-06T11:07:24.711Z,98965.94
2023-04-06T11:12:28.899Z,98968.41
2023-04-06T11:17:27.389Z,98983.09
2023-04-06T11:22:19.085Z,98981.75
2023-04-06T11:27:10.982Z,98989.16
2023-04-06T11:32:05.023Z,98980.63
2023-04-06T11:36:59.330Z,99003.66
2023-04-06T11:41:52.211Z,99001.78
2023-04-06T11:46:53.300Z,99001.19
2023-04-06T11:51:44.933Z,98984.97
2023-04-06T11:56:36.664Z,98997.44
2023-04-06T12:01:28.460Z,98989.00
2023-04-06T12:06:20.762Z,98999.09
2023-04-06T12:11:12.897Z,98995.69
2023-04-06T12:16:04.739Z,98996.13
2023-04-06T12:20:56.596Z,99005.38
2023-04-06T12:25:48.518Z,98996.59
2023-04-06T12:30:42.189Z,99003.69
2023-04-06T12:35:38.362Z,99009.69
2023-04-06T12:40:30.438Z,99026.47
2023-04-06T12:45:22.132Z,99030.97
2023-04-06T12:50:13.858Z,99032.78
2023-04-06T12:55:07.030Z,99040.00
2023-04-06T12:59:59.075Z,99037.34
2023-04-06T13:04:51.255Z,99048.09
2023-04-06T13:09:42.928Z,99059.00
2023-04-06T13:14:34.632Z,99048.75
2023-04-06T13:19:26.624Z,99030.25
2023-04-06T13:24:18.405Z,99032.31
2023-04-06T13:29:10.043Z,99041.50
2023-04-06T13:34:01.764Z,99050.06
2023-04-06T13:38:53.596Z,99058.25
2023-04-06T13:43:45.447Z,99063.78
2023-04-06T13:48:37.075Z,99079.06
2023-04-06T13:53:28.768Z,99077.00
2023-04-06T13:58:20.387Z,99069.84
2023-04-06T14:03:12.142Z,99077.16
2023-04-06T14:08:03.754Z,99079.16
2023-04-06T14:12:55.595Z,99070.34
2023-04-06T14:17:47.166Z,99086.94
2023-04-06T14:22:38.850Z,99077.97
2023-04-06T14:27:30.716Z,99089.44
2023-04-06T14:32:22.486Z,99095.06
2023-04-06T14:37:14.226Z,99104.94
2023-04-06T14:42:05.946Z,99109.22
2023-04-06T14:46:57.579Z,99107.75
2023-04-06T14:51:49.309Z,99109.56
2023-04-06T14:56:41.033Z,99117.59
2023-04-06T15:01:37.014Z,99126.31
2023-04-06T15:06:28.805Z,99122.53
2023-04-06T15:11:21.100Z,99126.28
2023-04-06T15:16:12.870Z,99135.47
2023-04-06T15:21:04.578Z,99142.03
2023-04-06T15:25:56.674Z,99143.97
2023-04-06T15:30:48.444Z,99140.91
2023-04-06T15:35:42.895Z,99150.03
2023-04-06T15:40:35.075Z,99165.75
2023-04-06T15:45:27.358Z,99163.31
2023-04-06T15:50:19.789Z,99163.66
2023-04-06T15:55:11.394Z,99173.81
2023-04-06T16:00:04.989Z,99168.63
2023-04-06T16:04:58.278Z,99167.31
2023-04-06T16:09:53.213Z,99178.53
2023-04-06T16:14:46.067Z,99178.88
2023-04-06T16:19:37.876Z,99187.03
2023-04-06T16:24:29.536Z,99196.81
2023-04-06T16:29:22.064Z,99195.97
2023-04-06T16:34:14.330Z,99197.03
2023-04-06T16:39:06.362Z,99199.72
2023-04-06T16:43:58.170Z,99207.75
2023-04-06T16:48:49.724Z,99211.53
2023-04-06T16:53:41.383Z,99225.09
2023-04-06T16:58:36.186Z,99244.44
2023-04-06T17:03:33.116Z,99246.19
2023-04-06T17:08:24.949Z,99247.50
2023-04-06T17:13:16.546Z,99250.91
2023-04-06T17:18:08.344Z,99255.34
2023-04-06T17:23:01.470Z,99263.38
2023-04-06T17:27:53.049Z,99274.69
2023-04-06T17:32:45.345Z,99275.53
2023-04-06T17:37:37.996Z,99287.28
2023-04-06T17:42:29.658Z,99287.28
2023-04-06T17:47:21.399Z,99302.28
2023-04-06T17:52:13.023Z,99304.84
2023-04-06T17:57:05.759Z,99312.88
2023-04-06T18:01:57.481Z,99318.44
2023-04-06T18:06:49.326Z,99323.13
2023-04-06T18:11:41.298Z,99318.81
2023-04-06T18:21:34.452Z,99331.69
2023-04-06T18:26:26.391Z,99326.78
2023-04-06T18:31:18.709Z,99333.09
2023-04-06T18:36:11.554Z,99339.00
2023-04-06T18:41:03.220Z,99349.28
2023-04-06T18:45:54.892Z,99336.69
2023-04-06T18:51:01.905Z,99347.53
2023-04-06T18:55:53.560Z,99356.53
2023-04-06T19:00:45.374Z,99365.94
2023-04-06T19:05:36.938Z,99361.22
2023-04-06T19:10:29.632Z,99366.91
2023-04-06T19:15:21.368Z,99363.81
2023-04-06T19:20:13.185Z,99378.19
2023-04-06T19:25:05.691Z,99378.22
2023-04-06T19:29:57.353Z,99387.81
2023-04-06T19:34:48.941Z,99389.91
2023-04-06T19:39:44.104Z,99381.00
2023-04-06T19:44:36.141Z,99398.88
2023-04-06T19:49:28.503Z,99406.16
2023-04-06T19:54:21.063Z,99408.88
2023-04-06T19:59:12.697Z,99426.34
2023-04-06T20:04:04.642Z,99421.34
2023-04-06T20:08:56.381Z,99439.00
2023-04-06T20:13:48.044Z,99435.47
2023-04-06T20:18:39.674Z,99452.91
2023-04-06T20:23:31.306Z,99453.31
2023-04-06T20:28:23.897Z,99456.81
2023-04-06T20:33:15.990Z,99461.81
2023-04-06T20:38:07.606Z,99465.53
2023-04-06T20:42:59.426Z,99473.41
2023-04-06T20:47:54.373Z,99477.75
2023-04-06T20:52:45.983Z,99485.81
2023-04-06T20:57:37.612Z,99482.88
2023-04-06T21:02:29.499Z,99484.75
2023-04-06T21:07:21.421Z,99488.88
2023-04-06T21:12:13.074Z,99484.88
2023-04-06T21:17:04.676Z,99480.50
2023-04-06T21:21:56.403Z,99492.53
2023-04-06T21:26:48.146Z,99484.19
2023-04-06T21:31:42.194Z,99483.16
2023-04-06T21:36:34.290Z,99480.41
2023-04-06T21:41:29.084Z,99487.25
2023-04-06T21:46:20.728Z,99481.38
2023-04-06T21:51:22.818Z,99484.03
2023-04-06T21:56:21.151Z,99487.72
2023-04-06T22:01:12.831Z,99495.13
2023-04-06T22:06:05.375Z,99503.22
2023-04-06T22:10:57.212Z,99506.97
2023-04-06T22:15:48.815Z,99509.00
2023-04-06T22:20:40.500Z,99524.34
2023-04-06T22:25:32.115Z,99532.63
2023-04-06T22:30:23.782Z,99536.28
2023-04-06T22:35:15.645Z,99539.97
2023-04-06T22:40:08.008Z,99527.47
2023-04-06T22:44:59.584Z,99530.31
2023-04-06T22:49:51.317Z,99524.41
2023-04-06T22:54:43.014Z,99529.03
2023-04-06T22:59:34.780Z,99537.69
2023-04-06T23:04:26.453Z,99546.81
2023-04-06T23:09:18.313Z,99539.50
2023-04-06T23:14:10.206Z,99546.47
2023-04-06T23:19:01.866Z,99545.19
2023-04-06T23:23:53.499Z,99562.44
2023-04-06T23:28:45.136Z,99576.91
2023-04-06T23:33:36.757Z,99584.09
2023-04-06T23:38:28.416Z,99585.66
2023-04-06T23:43:20.014Z,99588.09
2023-04-06T23:48:11.822Z,99591.16
2023-04-06T23:53:04.546Z,99602.31
2023-04-06T23:57:56.172Z,99602.50
